Time;durP1;ratioP1;P1;durP2;ratioP2;P2;SDS_P1;SDS_P2;PMS_P1;PMS_P2;Temp;Humidity;BMP_temperature;BMP_pressure;BME280_temperature;BME280_humidity;BME280_pressure;Samples;Min_cycle;Max_cycle;Signal;HPM_P1;HPM_P2
2022/06/30 00:02:03;;;;;;;8.13;5.18;;;;;;;21.13;100.00;95967.03;5031475;28;20214;-72
2022/06/30 00:04:30;;;;;;;9.43;5.50;;;;;;;21.10;100.00;95962.16;5031088;28;20209;-71
2022/06/30 00:06:56;;;;;;;8.02;5.32;;;;;;;20.92;100.00;95965.13;5031252;28;20233;-71
2022/06/30 00:09:24;;;;;;;8.43;5.20;;;;;;;21.02;100.00;95959.91;5030654;28;20198;-71
2022/06/30 00:11:51;;;;;;;9.38;5.25;;;;;;;20.98;100.00;95958.00;5031169;28;20202;-72
2022/06/30 00:14:17;;;;;;;8.23;5.75;;;;;;;20.79;100.00;95956.66;5030831;28;20202;-71
2022/06/30 00:16:44;;;;;;;10.25;5.60;;;;;;;20.78;100.00;95954.22;5031184;28;20202;-72
2022/06/30 00:19:10;;;;;;;9.40;5.60;;;;;;;20.72;100.00;95949.81;5031613;28;20412;-71
2022/06/30 00:21:37;;;;;;;8.13;5.32;;;;;;;20.79;100.00;95950.50;5031546;28;20229;-71
2022/06/30 00:24:04;;;;;;;13.30;5.40;;;;;;;20.80;100.00;95947.56;5030918;28;20248;-71
2022/06/30 00:26:32;;;;;;;9.40;5.63;;;;;;;20.89;100.00;95952.25;5031264;28;20226;-71
2022/06/30 00:28:58;;;;;;;9.05;5.50;;;;;;;20.70;100.00;95957.31;5031301;28;20673;-71
2022/06/30 00:31:25;;;;;;;9.13;5.43;;;;;;;20.62;100.00;95955.00;5031263;28;20205;-72
2022/06/30 00:33:51;;;;;;;11.27;5.15;;;;;;;20.55;100.00;95954.38;5030658;28;20709;-71
2022/06/30 00:36:18;;;;;;;13.23;5.25;;;;;;;20.29;100.00;95949.72;5031051;28;20198;-71
2022/06/30 00:38:44;;;;;;;14.70;5.75;;;;;;;20.49;100.00;95947.31;5030861;28;20228;-72
2022/06/30 00:41:11;;;;;;;9.75;5.57;;;;;;;20.50;100.00;95943.59;5031096;28;20202;-71
2022/06/30 00:43:46;;;;;;;11.20;6.05;;;;;;;20.59;100.00;95934.91;5030822;28;20226;-71
2022/06/30 00:46:14;;;;;;;9.45;6.00;;;;;;;20.34;100.00;95936.38;5030674;28;20225;-71
2022/06/30 00:48:41;;;;;;;11.77;6.10;;;;;;;20.39;100.00;95933.78;5030837;28;20558;-71
2022/06/30 00:51:08;;;;;;;9.23;6.15;;;;;;;20.28;100.00;95937.38;5029595;28;20206;-71
2022/06/30 00:53:36;;;;;;;7.00;5.15;;;;;;;19.99;100.00;95940.38;5030278;28;20233;-71
2022/06/30 00:56:04;;;;;;;8.70;5.07;;;;;;;20.09;100.00;95925.28;5030601;28;20204;-72
2022/06/30 00:58:32;;;;;;;8.98;5.28;;;;;;;20.30;100.00;95919.19;5030303;28;20198;-71
2022/06/30 01:01:01;;;;;;;8.00;4.95;;;;;;;20.56;100.00;95922.00;5030293;28;20228;-71
2022/06/30 01:03:28;;;;;;;11.27;5.78;;;;;;;20.43;100.00;95914.31;5029876;28;20639;-71
2022/06/30 01:05:55;;;;;;;11.25;5.50;;;;;;;20.50;100.00;95919.50;5030378;28;20213;-71
2022/06/30 01:08:23;;;;;;;10.15;5.47;;;;;;;20.42;100.00;95918.06;5029850;28;20587;-71
2022/06/30 01:13:35;;;;;;;7.53;5.55;;;;;;;20.29;100.00;95923.75;5029493;28;20708;-71
2022/06/30 01:16:03;;;;;;;6.80;5.40;;;;;;;20.32;100.00;95922.44;5029906;28;20214;-71
2022/06/30 01:18:33;;;;;;;9.10;6.63;;;;;;;20.32;100.00;95927.81;5030136;28;20198;-71
2022/06/30 01:20:59;;;;;;;15.35;6.63;;;;;;;20.27;100.00;95923.16;5030098;28;20202;-71
2022/06/30 01:23:27;;;;;;;12.15;6.15;;;;;;;20.06;100.00;95928.47;5029582;28;20225;-71
2022/06/30 01:25:54;;;;;;;10.82;5.32;;;;;;;19.88;100.00;95925.97;5029638;28;20213;-71
2022/06/30 01:28:21;;;;;;;7.32;5.28;;;;;;;20.01;100.00;95925.69;5029778;28;20198;-71
2022/06/30 01:30:48;;;;;;;8.77;5.15;;;;;;;19.93;100.00;95926.06;5029578;28;20205;-71
2022/06/30 01:33:14;;;;;;;8.38;5.82;;;;;;;20.02;100.00;95921.97;5029507;28;20221;-71
2022/06/30 01:35:41;;;;;;;9.07;6.38;;;;;;;19.95;100.00;95926.66;5029997;28;20213;-71
2022/06/30 01:38:08;;;;;;;13.43;7.15;;;;;;;20.05;100.00;95916.13;5029735;28;20202;-71
2022/06/30 01:40:36;;;;;;;13.25;7.38;;;;;;;20.18;100.00;95902.41;5029776;28;20669;-71
2022/06/30 01:43:05;;;;;;;14.98;7.07;;;;;;;20.02;100.00;95903.25;5029074;28;20218;-71
2022/06/30 01:45:32;;;;;;;16.00;6.72;;;;;;;19.71;100.00;95909.06;5029319;28;20217;-71
2022/06/30 01:47:58;;;;;;;10.40;6.85;;;;;;;19.93;100.00;95902.00;5029624;28;20228;-71
2022/06/30 01:50:27;;;;;;;13.40;7.10;;;;;;;19.99;100.00;95901.03;5029516;28;20256;-71
2022/06/30 01:52:54;;;;;;;17.15;6.50;;;;;;;19.97;100.00;95913.03;5028542;28;20229;-71
2022/06/30 01:55:21;;;;;;;9.60;6.00;;;;;;;19.77;100.00;95913.47;5029409;28;20247;-71
2022/06/30 01:57:49;;;;;;;10.98;5.95;;;;;;;19.71;100.00;95909.06;5029074;28;20198;-71
2022/06/30 02:00:18;;;;;;;7.00;5.70;;;;;;;19.54;100.00;95902.09;5029448;28;20208;-71
2022/06/30 02:02:45;;;;;;;8.57;5.40;;;;;;;19.48;100.00;95910.25;5027711;28;20226;-71
2022/06/30 02:05:12;;;;;;;7.82;5.70;;;;;;;19.54;100.00;95906.63;5029096;28;20213;-71
2022/06/30 02:07:39;;;;;;;12.25;5.95;;;;;;;19.52;100.00;95908.72;5027987;28;20218;-71
2022/06/30 02:10:07;;;;;;;10.18;5.57;;;;;;;19.57;100.00;95906.97;5029000;28;20662;-71
2022/06/30 02:12:46;;;;;;;11.35;5.93;;;;;;;19.51;100.00;95905.22;5028660;28;20213;-71
2022/06/30 02:15:15;;;;;;;12.43;6.13;;;;;;;19.64;100.00;95905.75;5029189;28;20574;-71
2022/06/30 02:17:42;;;;;;;9.60;5.68;;;;;;;19.42;99.55;95908.53;5028806;28;20194;-71
2022/06/30 02:20:10;;;;;;;8.32;5.43;;;;;;;19.53;99.70;95899.66;5028854;28;20271;-72
2022/06/30 02:22:37;;;;;;;12.40;5.60;;;;;;;19.45;99.85;95900.03;5028517;28;20233;-71
2022/06/30 02:25:04;;;;;;;6.85;5.10;;;;;;;19.47;99.64;95900.63;5029003;28;20677;-72
2022/06/30 02:27:31;;;;;;;8.82;4.75;;;;;;;19.47;98.93;95904.09;5028644;28;20232;-71
2022/06/30 02:29:58;;;;;;;11.93;5.55;;;;;;;19.20;99.65;95896.91;5028672;28;20202;-72
2022/06/30 02:32:26;;;;;;;9.85;5.47;;;;;;;19.27;99.73;95894.88;5028377;28;20224;-72
2022/06/30 02:34:53;;;;;;;10.55;5.72;;;;;;;19.25;100.00;95889.00;5028630;28;20566;-72
2022/06/30 02:37:20;;;;;;;8.50;5.50;;;;;;;19.34;99.71;95891.03;5028800;28;20201;-72
2022/06/30 02:39:47;;;;;;;9.27;5.68;;;;;;;19.30;100.00;95895.22;5028686;28;20220;-71
2022/06/30 02:42:13;;;;;;;8.38;6.00;;;;;;;19.18;100.00;95893.63;5028389;28;20224;-72
2022/06/30 02:44:40;;;;;;;11.48;6.68;;;;;;;19.25;100.00;95897.00;5028698;28;20677;-72
2022/06/30 02:47:06;;;;;;;15.45;6.38;;;;;;;19.30;100.00;95899.78;5028332;28;20578;-72
2022/06/30 02:49:36;;;;;;;9.23;6.30;;;;;;;19.26;100.00;95893.28;5028712;28;20204;-72
2022/06/30 02:52:02;;;;;;;9.48;5.43;;;;;;;19.16;99.35;95893.88;5028387;28;20218;-71
2022/06/30 02:54:29;;;;;;;8.23;5.13;;;;;;;19.03;99.54;95898.69;5028211;28;20202;-72
2022/06/30 02:56:55;;;;;;;10.15;5.45;;;;;;;19.11;99.47;95901.00;5028396;28;20654;-72
2022/06/30 02:59:22;;;;;;;9.02;5.90;;;;;;;19.12;100.00;95905.28;5027129;28;20210;-71
2022/06/30 03:01:48;;;;;;;10.15;6.70;;;;;;;19.15;100.00;95902.13;5028539;28;20563;-71
2022/06/30 03:04:15;;;;;;;9.23;6.07;;;;;;;19.18;100.00;95909.66;5028493;28;20603;-71
2022/06/30 03:06:43;;;;;;;11.40;6.50;;;;;;;18.93;100.00;95903.81;5028195;28;20731;-71
2022/06/30 03:09:09;;;;;;;9.93;5.63;;;;;;;18.52;100.00;95913.84;5027906;28;20679;-71
2022/06/30 03:11:36;;;;;;;8.45;5.15;;;;;;;18.76;100.00;95913.59;5028153;28;20209;-71
2022/06/30 03:14:02;;;;;;;11.20;6.25;;;;;;;18.93;100.00;95912.63;5029015;28;20826;-71
2022/06/30 03:16:29;;;;;;;10.32;7.05;;;;;;;19.07;100.00;95913.22;5032568;28;20292;-71
2022/06/30 03:18:55;;;;;;;11.13;7.57;;;;;;;19.15;100.00;95918.16;5032218;28;20666;-71
2022/06/30 03:21:22;;;;;;;7.90;5.88;;;;;;;19.08;100.00;95917.47;5032238;28;20198;-71
2022/06/30 03:26:17;;;;;;;9.80;5.72;;;;;;;18.96;100.00;95930.03;5050447;28;20208;-72
2022/06/30 03:28:44;;;;;;;8.88;5.50;;;;;;;18.90;99.95;95933.63;5051986;28;20232;-71
2022/06/30 03:31:11;;;;;;;12.70;5.40;;;;;;;18.85;98.91;95936.22;5052208;28;20848;-73
2022/06/30 03:33:38;;;;;;;9.40;5.28;;;;;;;18.53;100.00;95936.81;5051881;28;20274;-72
2022/06/30 03:36:05;;;;;;;10.82;5.85;;;;;;;18.64;100.00;95941.34;5051895;28;20242;-72
2022/06/30 03:38:31;;;;;;;14.10;5.85;;;;;;;18.48;100.00;95934.84;5052086;28;20596;-72
2022/06/30 03:40:58;;;;;;;8.32;5.60;;;;;;;18.53;100.00;95934.97;5051556;28;20204;-71
2022/06/30 03:43:26;;;;;;;11.30;7.18;;;;;;;18.82;100.00;95942.00;5051510;28;20584;-71
2022/06/30 03:45:52;;;;;;;15.18;8.57;;;;;;;18.87;100.00;95942.13;5051333;28;20664;-71
2022/06/30 03:48:19;;;;;;;16.92;7.43;;;;;;;18.89;100.00;95950.72;5050885;28;20787;-71
2022/06/30 03:50:45;;;;;;;14.02;8.05;;;;;;;18.88;100.00;95946.41;5051580;28;20830;-71
2022/06/30 03:53:12;;;;;;;13.85;7.93;;;;;;;18.99;100.00;95953.56;5051280;28;20568;-71
2022/06/30 03:55:39;;;;;;;12.60;7.88;;;;;;;18.99;100.00;95946.41;5051521;28;20201;-71
2022/06/30 03:58:06;;;;;;;15.32;8.25;;;;;;;19.03;100.00;95952.09;5051360;28;20204;-72
2022/06/30 04:00:34;;;;;;;12.75;8.00;;;;;;;19.27;100.00;95957.16;5050945;28;20201;-71
2022/06/30 04:03:01;;;;;;;13.50;8.10;;;;;;;19.09;100.00;95951.16;5050914;28;20224;-71
2022/06/30 04:05:28;;;;;;;11.63;7.88;;;;;;;19.07;100.00;95947.94;5051209;28;20200;-71
2022/06/30 04:07:54;;;;;;;11.57;7.55;;;;;;;19.06;100.00;95946.28;5050119;28;20244;-71
2022/06/30 04:10:21;;;;;;;12.52;7.15;;;;;;;19.13;100.00;95944.28;5051399;28;20206;-71
2022/06/30 04:12:47;;;;;;;12.82;7.53;;;;;;;19.07;100.00;95937.25;5050795;28;20225;-71
2022/06/30 04:15:14;;;;;;;13.70;7.80;;;;;;;18.98;100.00;95936.75;5050883;28;20268;-71
2022/06/30 04:17:42;;;;;;;14.88;7.60;;;;;;;19.12;100.00;95934.69;5051011;28;20220;-71
2022/06/30 04:20:15;;;;;;;13.00;7.60;;;;;;;19.18;100.00;95936.38;5051269;28;20563;-71
2022/06/30 04:22:43;;;;;;;14.05;7.85;;;;;;;19.06;100.00;95938.28;5050494;28;20256;-71
2022/06/30 04:25:10;;;;;;;13.30;7.63;;;;;;;19.35;100.00;95937.28;5050842;28;20627;-71
2022/06/30 04:27:37;;;;;;;12.73;7.50;;;;;;;19.40;100.00;95937.34;5050867;28;20231;-71
2022/06/30 04:30:04;;;;;;;16.02;8.18;;;;;;;19.44;100.00;95938.53;5050829;28;20193;-71
2022/06/30 04:32:39;;;;;;;17.45;8.15;;;;;;;19.47;100.00;95941.50;5050445;28;20213;-71
2022/06/30 04:35:09;;;;;;;14.15;8.70;;;;;;;19.59;100.00;95948.44;5050617;28;20208;-71
2022/06/30 04:37:35;;;;;;;11.32;7.53;;;;;;;19.59;100.00;95940.41;5050715;28;20683;-71
2022/06/30 04:42:47;;;;;;;20.85;7.88;;;;;;;19.66;100.00;95938.41;5050392;28;20359;-71
2022/06/30 04:45:14;;;;;;;13.48;8.50;;;;;;;19.52;100.00;95935.47;5050169;28;20205;-71
2022/06/30 04:47:41;;;;;;;17.55;7.20;;;;;;;19.58;100.00;95938.78;5050169;28;20224;-71
2022/06/30 04:50:10;;;;;;;10.90;7.47;;;;;;;19.82;100.00;95931.47;5050451;28;20204;-71
2022/06/30 04:52:36;;;;;;;16.08;8.73;;;;;;;19.80;100.00;95923.69;5050119;28;20212;-71
2022/06/30 04:55:03;;;;;;;14.75;8.32;;;;;;;19.87;100.00;95929.69;5050381;28;20201;-69
2022/06/30 04:57:30;;;;;;;15.85;9.10;;;;;;;20.07;100.00;95922.03;5050443;28;20193;-70
2022/06/30 04:59:56;;;;;;;16.25;9.38;;;;;;;20.26;100.00;95926.09;5050437;28;20216;-70
2022/06/30 05:02:23;;;;;;;15.18;9.77;;;;;;;20.30;100.00;95924.53;5050230;28;20197;-69
2022/06/30 05:04:49;;;;;;;16.35;8.68;;;;;;;20.24;100.00;95928.22;5050307;28;20661;-69
2022/06/30 05:07:17;;;;;;;13.25;8.02;;;;;;;20.55;100.00;95924.94;5049552;28;20205;-69
2022/06/30 05:09:44;;;;;;;17.10;8.98;;;;;;;20.58;100.00;95927.94;5050297;28;20308;-69
2022/06/30 05:12:11;;;;;;;17.23;9.15;;;;;;;20.80;99.76;95920.78;5050143;28;20205;-70
2022/06/30 05:14:37;;;;;;;21.83;10.18;;;;;;;20.72;98.67;95915.00;5049866;28;20221;-70
2022/06/30 05:17:04;;;;;;;19.80;10.50;;;;;;;20.72;98.88;95921.19;5050531;28;20546;-69
2022/06/30 05:19:31;;;;;;;23.67;11.30;;;;;;;20.79;100.00;95918.38;5049851;28;20205;-69
2022/06/30 05:21:58;;;;;;;23.23;11.88;;;;;;;20.65;100.00;95919.75;5050148;28;20197;-69
2022/06/30 05:27:10;;;;;;;22.35;11.18;;;;;;;20.78;100.00;95908.69;5050372;28;20642;-69
2022/06/30 05:29:36;;;;;;;24.42;11.25;;;;;;;20.97;100.00;95906.25;5049979;28;20201;-69
2022/06/30 05:32:03;;;;;;;20.25;10.82;;;;;;;20.94;99.74;95906.78;5050110;28;20205;-70
2022/06/30 05:34:30;;;;;;;18.25;10.57;;;;;;;21.19;99.95;95908.97;5049608;28;20224;-69
2022/06/30 05:36:56;;;;;;;18.45;9.90;;;;;;;21.34;98.05;95907.25;5048673;28;20197;-70
2022/06/30 05:39:23;;;;;;;16.13;9.52;;;;;;;21.49;97.89;95905.56;5049721;28;20208;-70
2022/06/30 05:41:51;;;;;;;21.77;9.65;;;;;;;21.75;95.40;95899.41;5049638;28;20225;-70
2022/06/30 05:44:17;;;;;;;19.50;9.32;;;;;;;21.78;93.94;95898.09;5049318;28;20232;-69
2022/06/30 05:46:44;;;;;;;17.77;9.18;;;;;;;21.76;93.29;95897.56;5049810;28;20205;-68
2022/06/30 05:49:11;;;;;;;14.73;9.25;;;;;;;21.81;94.87;95894.91;5049535;28;20221;-69
2022/06/30 05:51:38;;;;;;;17.15;8.85;;;;;;;21.93;94.31;95898.25;5049396;28;20201;-69
2022/06/30 05:54:04;;;;;;;15.52;10.10;;;;;;;21.97;94.40;95885.94;5049181;28;20221;-69
2022/06/30 05:56:31;;;;;;;15.93;8.57;;;;;;;22.05;94.48;95891.66;5049272;28;20689;-70
2022/06/30 05:58:58;;;;;;;14.60;8.75;;;;;;;22.08;96.07;95897.31;5049425;28;20197;-69
2022/06/30 06:01:25;;;;;;;14.43;9.70;;;;;;;22.18;94.37;95893.91;5049697;28;20212;-70
2022/06/30 06:03:51;;;;;;;17.73;11.45;;;;;;;22.26;93.59;95893.44;5048834;28;20231;-70
2022/06/30 06:06:18;;;;;;;18.63;11.20;;;;;;;22.26;92.86;95896.97;5048972;28;20201;-70
2022/06/30 06:08:44;;;;;;;17.05;9.65;;;;;;;22.38;92.66;95904.84;5048595;28;20229;-70
2022/06/30 06:11:11;;;;;;;19.15;10.80;;;;;;;22.43;93.36;95904.84;5049145;28;20209;-70
2022/06/30 06:13:37;;;;;;;20.75;11.07;;;;;;;22.57;93.32;95914.91;5048942;28;20217;-70
2022/06/30 06:16:06;;;;;;;16.95;8.93;;;;;;;22.82;90.82;95901.59;5049233;28;20216;-70
2022/06/30 06:18:33;;;;;;;16.08;9.40;;;;;;;22.86;90.59;95905.38;5049046;28;20247;-70
2022/06/30 06:21:00;;;;;;;14.10;8.80;;;;;;;22.88;91.91;95911.31;5049125;28;20201;-69
2022/06/30 06:23:26;;;;;;;17.38;9.68;;;;;;;22.82;92.76;95904.28;5048490;28;20228;-70
2022/06/30 06:25:53;;;;;;;22.80;9.18;;;;;;;22.84;92.49;95908.34;5048524;28;20676;-70
2022/06/30 06:31:03;;;;;;;25.98;10.18;;;;;;;22.80;96.08;95909.13;5048324;28;21066;-70
2022/06/30 06:33:31;;;;;;;17.88;9.70;;;;;;;23.07;91.27;95915.22;5048101;28;20221;-70
2022/06/30 06:35:58;;;;;;;21.27;11.63;;;;;;;22.75;96.07;95907.22;5048554;28;21045;-69
2022/06/30 06:38:24;;;;;;;17.65;9.20;;;;;;;23.02;93.69;95913.31;5048333;28;20213;-69
2022/06/30 06:40:51;;;;;;;20.02;10.50;;;;;;;23.21;92.31;95911.78;5048832;28;20197;-70
2022/06/30 06:43:17;;;;;;;13.90;8.50;;;;;;;23.25;91.74;95923.63;5048338;28;20224;-69
2022/06/30 06:45:44;;;;;;;21.20;10.20;;;;;;;23.42;91.80;95925.06;5048762;28;20212;-70
2022/06/30 06:48:10;;;;;;;20.67;10.82;;;;;;;23.16;91.44;95919.81;5047709;28;20569;-69
2022/06/30 06:50:38;;;;;;;18.70;10.75;;;;;;;23.27;92.49;95910.75;5048342;28;20661;-70
2022/06/30 06:53:05;;;;;;;17.95;10.48;;;;;;;23.01;93.87;95913.56;5048180;28;20213;-70
2022/06/30 06:55:31;;;;;;;15.45;9.73;;;;;;;22.95;95.57;95911.88;5048571;28;20197;-69
2022/06/30 06:57:58;;;;;;;17.10;9.98;;;;;;;23.18;93.78;95912.31;5048321;28;20193;-69
2022/06/30 07:00:24;;;;;;;19.58;9.98;;;;;;;23.46;92.64;95909.22;5048381;28;20206;-70
2022/06/30 07:02:51;;;;;;;17.90;10.27;;;;;;;23.37;93.90;95911.59;5047803;28;20220;-70
2022/06/30 07:05:18;;;;;;;16.70;9.13;;;;;;;23.51;92.65;95915.41;5048345;28;20284;-69
2022/06/30 07:07:46;;;;;;;17.38;10.38;;;;;;;23.48;91.01;95902.47;5047571;28;20223;-69
2022/06/30 07:10:14;;;;;;;20.42;9.68;;;;;;;23.77;91.02;95900.97;5048534;28;20607;-70
2022/06/30 07:12:41;;;;;;;19.73;8.68;;;;;;;24.07;88.21;95906.38;5047868;28;20228;-70
2022/06/30 07:15:09;;;;;;;18.98;9.30;;;;;;;24.11;91.57;95899.41;5048391;28;20225;-70
2022/06/30 07:17:36;;;;;;;10.52;7.68;;;;;;;24.31;83.98;95902.06;5048229;28;20251;-69
2022/06/30 07:20:04;;;;;;;13.13;7.68;;;;;;;24.22;87.09;95898.31;5048476;28;20247;-70
2022/06/30 07:22:30;;;;;;;12.63;8.23;;;;;;;24.25;86.75;95905.84;5047993;28;20194;-69
2022/06/30 07:24:58;;;;;;;13.40;7.53;;;;;;;24.59;86.33;95900.47;5047993;28;20213;-70
2022/06/30 07:27:24;;;;;;;16.08;8.57;;;;;;;24.53;86.92;95897.25;5048302;28;20208;-71
2022/06/30 07:29:51;;;;;;;12.38;7.22;;;;;;;24.81;83.72;95903.66;5048186;28;20707;-70
2022/06/30 07:32:17;;;;;;;13.05;8.05;;;;;;;24.59;86.30;95896.97;5048109;28;20205;-70
2022/06/30 07:34:44;;;;;;;15.95;8.60;;;;;;;24.69;85.48;95900.47;5048593;28;20209;-70
2022/06/30 07:37:10;;;;;;;11.73;8.70;;;;;;;24.86;87.06;95894.75;5048193;28;20202;-71
2022/06/30 07:39:37;;;;;;;13.10;8.00;;;;;;;25.10;84.43;95885.84;5047760;28;20197;-71
2022/06/30 07:42:06;;;;;;;13.00;7.57;;;;;;;25.30;82.97;95888.44;5048757;28;20578;-71
2022/06/30 07:44:32;;;;;;;17.52;7.47;;;;;;;25.37;82.43;95887.06;5047163;28;20240;-71
2022/06/30 07:46:59;;;;;;;14.18;7.18;;;;;;;25.27;80.27;95886.31;5048243;28;20212;-70
2022/06/30 07:49:25;;;;;;;15.50;8.20;;;;;;;25.25;88.81;95878.50;5048728;28;20236;-69
2022/06/30 07:51:52;;;;;;;14.95;7.60;;;;;;;25.45;80.68;95880.28;5047952;28;20198;-70
2022/06/30 07:54:19;;;;;;;14.43;7.70;;;;;;;25.42;80.17;95883.50;5047241;28;20232;-69
2022/06/30 07:56:46;;;;;;;11.82;7.43;;;;;;;25.59;81.25;95884.00;5047247;28;20220;-69
2022/06/30 07:59:14;;;;;;;12.80;7.72;;;;;;;25.63;79.49;95880.44;5047722;28;20204;-70
2022/06/30 08:01:40;;;;;;;13.65;8.50;;;;;;;25.67;79.92;95883.41;5051510;28;20746;-69
2022/06/30 08:04:07;;;;;;;14.60;8.57;;;;;;;25.43;82.30;95880.56;5051098;28;20220;-70
2022/06/30 08:06:33;;;;;;;12.90;7.68;;;;;;;25.70;81.44;95880.13;5050833;28;20197;-70
2022/06/30 08:09:00;;;;;;;11.43;7.43;;;;;;;25.90;80.66;95867.34;5050592;28;20232;-69
2022/06/30 08:11:28;;;;;;;11.82;7.40;;;;;;;25.93;80.85;95878.38;5050994;28;20197;-69
2022/06/30 08:13:54;;;;;;;13.60;7.28;;;;;;;25.98;79.71;95869.44;5050614;28;20224;-69
2022/06/30 08:16:22;;;;;;;15.10;7.53;;;;;;;26.02;82.04;95868.59;5051563;28;20206;-69
2022/06/30 08:18:49;;;;;;;13.77;7.55;;;;;;;26.29;79.25;95870.84;5051309;28;20197;-69
2022/06/30 08:21:16;;;;;;;14.77;7.38;;;;;;;26.08;77.71;95872.06;5051232;28;20688;-70
2022/06/30 08:23:42;;;;;;;9.18;6.45;;;;;;;26.16;80.25;95869.56;5050700;28;20264;-69
2022/06/30 08:26:09;;;;;;;9.25;6.30;;;;;;;26.43;74.91;95867.22;5050951;28;20213;-69
2022/06/30 08:28:35;;;;;;;9.63;5.90;;;;;;;26.47;72.94;95865.56;5050633;28;20240;-70
2022/06/30 08:31:03;;;;;;;9.73;5.78;;;;;;;26.72;74.39;95862.63;5051276;28;20197;-70
2022/06/30 08:33:31;;;;;;;11.07;5.70;;;;;;;27.02;72.60;95871.22;5050372;28;20220;-70
2022/06/30 08:35:58;;;;;;;7.38;5.20;;;;;;;26.93;73.50;95874.81;5050843;28;20194;-70
2022/06/30 08:38:25;;;;;;;13.18;5.97;;;;;;;26.70;75.00;95876.41;5051060;28;20197;-70
2022/06/30 08:43:36;;;;;;;9.35;5.40;;;;;;;26.67;74.84;95868.06;5050430;28;20235;-71
2022/06/30 08:46:03;;;;;;;12.27;5.13;;;;;;;26.93;68.67;95864.00;5050895;28;20212;-70
2022/06/30 08:48:31;;;;;;;8.73;4.75;;;;;;;26.98;69.11;95864.78;5050714;28;20233;-70
2022/06/30 08:51:02;;;;;;;11.02;4.97;;;;;;;27.28;67.19;95856.31;5050757;28;20194;-70
2022/06/30 08:53:38;;;;;;;8.93;4.70;;;;;;;27.51;67.01;95853.56;5050249;28;20217;-70
2022/06/30 08:56:05;;;;;;;9.70;4.95;;;;;;;27.87;67.76;95854.72;5050846;28;20697;-70
2022/06/30 08:58:33;;;;;;;12.90;5.47;;;;;;;27.97;67.97;95844.53;5051058;28;20197;-71
2022/06/30 09:01:00;;;;;;;7.95;5.00;;;;;;;27.71;69.31;95850.59;5050033;28;20556;-71
2022/06/30 09:03:27;;;;;;;7.85;5.50;;;;;;;28.02;71.47;95849.06;5050250;28;20227;-70
2022/06/30 09:05:56;;;;;;;9.52;5.50;;;;;;;28.01;71.60;95834.69;5050991;28;20201;-70
2022/06/30 09:08:23;;;;;;;8.30;5.45;;;;;;;27.87;69.92;95843.88;5051555;28;20201;-71
2022/06/30 09:10:51;;;;;;;8.98;5.35;;;;;;;27.63;71.34;95835.00;5050398;28;20200;-71
2022/06/30 09:13:18;;;;;;;7.25;4.95;;;;;;;27.40;69.50;95849.38;5049577;28;20232;-70
2022/06/30 09:15:44;;;;;;;8.93;5.25;;;;;;;27.18;70.05;95838.28;5050071;28;20205;-70
2022/06/30 09:18:22;;;;;;;10.50;5.30;;;;;;;27.44;71.20;95839.56;5049583;28;20634;-71
2022/06/30 09:20:48;;;;;;;9.35;5.38;;;;;;;27.01;67.59;95830.94;5050320;28;20213;-71
2022/06/30 09:23:24;;;;;;;7.68;5.03;;;;;;;27.20;68.73;95833.41;5049636;28;20244;-71
2022/06/30 09:25:52;;;;;;;10.77;5.57;;;;;;;27.17;71.10;95827.75;5050445;28;20672;-71
2022/06/30 09:28:39;;;;;;;6.40;4.43;;;;;;;27.23;70.39;95827.41;5050036;28;20203;-71
2022/06/30 09:31:06;;;;;;;8.65;4.75;;;;;;;27.21;65.86;95829.63;5049467;28;20657;-72
2022/06/30 09:33:35;;;;;;;7.10;4.60;;;;;;;27.36;69.01;95829.41;5049152;28;20225;-71
2022/06/30 09:36:20;;;;;;;8.30;4.60;;;;;;;27.85;70.08;95824.38;5050070;28;20198;-72
2022/06/30 09:39:01;;;;;;;9.80;4.95;;;;;;;28.33;64.83;95816.59;5049663;28;20201;-71
2022/06/30 09:41:29;;;;;;;5.78;3.85;;;;;;;28.63;61.18;95816.03;5049322;28;20687;-73
2022/06/30 09:43:56;;;;;;;6.30;3.97;;;;;;;28.73;60.66;95817.75;5049535;28;20209;-72
2022/06/30 09:46:23;;;;;;;5.60;3.70;;;;;;;27.96;62.02;95817.72;5049577;28;20212;-72
2022/06/30 09:48:49;;;;;;;8.70;4.03;;;;;;;27.84;62.58;95818.19;5049629;28;20228;-73
2022/06/30 09:51:17;;;;;;;5.35;3.72;;;;;;;28.27;61.73;95816.16;5050205;28;20197;-72
2022/06/30 09:53:43;;;;;;;11.18;4.13;;;;;;;28.41;61.80;95824.03;5048614;28;20229;-73
2022/06/30 09:56:13;;;;;;;5.65;3.20;;;;;;;28.75;59.74;95808.25;5049315;28;20204;-73
2022/06/30 09:58:42;;;;;;;4.63;3.58;;;;;;;28.62;60.79;95814.44;5049505;28;20201;-73
2022/06/30 10:01:10;;;;;;;5.75;3.50;;;;;;;28.89;55.42;95811.75;5050266;28;20201;-73
2022/06/30 10:03:45;;;;;;;4.50;3.60;;;;;;;29.33;57.58;95806.53;5049569;28;20213;-72
2022/06/30 10:06:14;;;;;;;7.35;3.78;;;;;;;29.68;59.50;95806.56;5049678;28;20212;-72
2022/06/30 10:08:41;;;;;;;6.57;3.60;;;;;;;29.27;60.54;95805.03;5048604;28;20693;-73
2022/06/30 10:11:08;;;;;;;7.10;3.50;;;;;;;29.50;57.65;95809.44;5049058;28;20580;-72
2022/06/30 10:13:39;;;;;;;4.47;3.25;;;;;;;29.44;55.32;95797.09;5051106;28;20233;-71
2022/06/30 10:16:08;;;;;;;3.58;3.00;;;;;;;29.42;56.65;95808.25;5051918;28;20205;-72
2022/06/30 10:18:38;;;;;;;5.25;3.15;;;;;;;29.56;52.55;95809.03;5049148;28;20201;-72
2022/06/30 10:21:05;;;;;;;5.43;3.67;;;;;;;29.60;55.06;95804.59;5050476;28;20212;-73
2022/06/30 10:23:33;;;;;;;5.03;3.50;;;;;;;29.91;55.60;95802.81;5048773;28;20705;-72
2022/06/30 10:25:59;;;;;;;4.03;3.28;;;;;;;29.96;53.51;95810.84;5048956;28;20204;-72
2022/06/30 10:28:28;;;;;;;5.07;3.10;;;;;;;30.00;53.16;95803.69;5048964;28;20203;-71
2022/06/30 10:31:01;;;;;;;4.80;3.33;;;;;;;30.24;54.51;95805.78;5048708;28;20619;-72
2022/06/30 10:33:38;;;;;;;5.88;3.60;;;;;;;30.07;55.46;95802.13;5048216;28;20236;-72
2022/06/30 10:36:09;;;;;;;4.18;3.00;;;;;;;29.65;51.42;95797.13;5049020;28;20204;-71
2022/06/30 10:38:38;;;;;;;5.43;3.50;;;;;;;29.69;51.87;95800.81;5048272;28;20665;-71
2022/06/30 10:41:10;;;;;;;8.65;3.53;;;;;;;29.86;52.61;95795.59;5048638;28;20201;-71
2022/06/30 10:44:14;;;;;;;7.70;3.30;;;;;;;30.18;53.18;95795.34;5048074;28;20286;-71
2022/06/30 10:47:08;;;;;;;6.00;3.00;;;;;;;30.63;49.29;95792.28;5048405;28;20665;-72
2022/06/30 10:49:52;;;;;;;3.90;2.97;;;;;;;30.54;48.20;95787.94;5048547;28;20264;-72
2022/06/30 10:52:20;;;;;;;6.70;2.92;;;;;;;30.70;49.11;95781.75;5048182;28;20205;-71
2022/06/30 10:54:47;;;;;;;7.55;2.90;;;;;;;30.88;48.07;95786.97;5048799;28;20205;-72
2022/06/30 10:57:16;;;;;;;5.43;3.00;;;;;;;31.16;47.18;95784.81;5048498;28;20201;-71
2022/06/30 10:59:42;;;;;;;4.30;2.72;;;;;;;31.16;48.52;95784.81;5047840;28;20205;-71
2022/06/30 11:02:25;;;;;;;3.55;2.58;;;;;;;31.49;44.27;95775.94;5048302;28;20204;-72
2022/06/30 11:05:12;;;;;;;5.78;2.53;;;;;;;31.24;44.29;95776.69;5047737;28;20640;-73
2022/06/30 11:07:39;;;;;;;3.58;2.65;;;;;;;31.22;43.54;95781.63;5048523;28;20201;-71
2022/06/30 11:10:21;;;;;;;8.45;2.88;;;;;;;30.77;47.13;95773.13;5048299;28;20225;-73
2022/06/30 11:12:59;;;;;;;3.83;2.75;;;;;;;31.24;45.02;95771.25;5044374;28;20221;-72
2022/06/30 11:15:54;;;;;;;8.48;2.80;;;;;;;30.88;46.25;95767.09;5048034;28;20247;-72
2022/06/30 11:18:23;;;;;;;4.78;2.78;;;;;;;30.33;48.20;95765.88;5047706;28;20250;-72
2022/06/30 11:20:51;;;;;;;4.22;2.72;;;;;;;31.03;48.51;95762.06;5048288;28;20683;-70
2022/06/30 11:23:19;;;;;;;5.22;2.78;;;;;;;31.49;46.78;95757.72;5047893;28;20221;-71
2022/06/30 11:28:31;;;;;;;4.32;2.70;;;;;;;31.49;51.40;95754.16;5048398;28;20275;-71
2022/06/30 11:30:58;;;;;;;5.38;2.85;;;;;;;31.82;45.57;95752.56;5047675;28;20217;-70
2022/06/30 11:33:25;;;;;;;5.50;3.05;;;;;;;31.85;49.37;95738.28;5047946;28;20213;-70
2022/06/30 11:36:04;;;;;;;4.28;2.70;;;;;;;31.66;50.76;95746.03;5050132;28;20212;-70
2022/06/30 11:38:32;;;;;;;8.10;3.08;;;;;;;31.83;46.47;95735.91;5050989;28;20204;-70
2022/06/30 11:41:54;;;;;;;6.70;2.95;;;;;;;31.66;49.52;95743.28;5051864;28;20201;-71
2022/06/30 11:43:50;;;;;;;5.38;3.00;;;;;;;31.34;46.10;95735.53;5050795;28;20221;-70
2022/06/30 11:46:17;;;;;;;4.20;2.78;;;;;;;31.21;46.17;95731.06;5051935;28;20197;-71
2022/06/30 11:48:45;;;;;;;8.00;2.85;;;;;;;31.59;47.01;95721.97;5051652;28;20216;-70